createdAt,value
2022-08-24T00:02:07.993Z,100694.31
2022-08-24T00:04:38.715Z,100704.50
2022-08-24T00:07:13.019Z,100699.72
2022-08-24T00:09:53.202Z,100699.53
2022-08-24T00:12:19.834Z,100702.06
2022-08-24T00:14:46.374Z,100695.94
2022-08-24T00:17:12.837Z,100702.81
2022-08-24T00:19:39.623Z,100701.00
2022-08-24T00:22:06.315Z,100705.59
2022-08-24T00:24:33.958Z,100707.47
2022-08-24T00:27:00.525Z,100711.69
2022-08-24T00:29:27.135Z,100722.91
2022-08-24T00:31:53.872Z,100721.53
2022-08-24T00:34:20.564Z,100715.41
2022-08-24T00:36:47.381Z,100719.44
2022-08-24T00:39:14.308Z,100714.13
2022-08-24T00:41:43.845Z,100712.09
2022-08-24T00:44:11.732Z,100716.34
2022-08-24T00:46:46.469Z,100718.28
2022-08-24T00:49:19.203Z,100716.69
2022-08-24T00:52:03.785Z,100717.38
2022-08-24T00:54:31.972Z,100721.13
2022-08-24T00:57:01.369Z,100716.22
2022-08-24T00:59:34.285Z,100718.31
2022-08-24T01:02:06.274Z,100711.91
2022-08-24T01:04:52.111Z,100716.59
2022-08-24T01:07:19.246Z,100716.94
2022-08-24T01:09:46.359Z,100714.88
2022-08-24T01:12:14.020Z,100707.69
2022-08-24T01:14:40.610Z,100720.94
2022-08-24T01:17:25.489Z,100715.34
2022-08-24T01:19:55.210Z,100715.44
2022-08-24T01:22:31.045Z,100710.88
2022-08-24T01:24:57.668Z,100713.75
2022-08-24T01:27:27.862Z,100715.69
2022-08-24T01:29:55.738Z,100708.47
2022-08-24T01:32:27.925Z,100712.63
2022-08-24T01:34:55.722Z,100711.25
2022-08-24T01:37:22.606Z,100708.38
2022-08-24T01:39:50.620Z,100709.88
2022-08-24T01:42:17.228Z,100704.16
2022-08-24T01:44:45.106Z,100703.38
2022-08-24T01:47:13.558Z,100711.66
2022-08-24T01:49:45.044Z,100713.34
2022-08-24T01:52:13.354Z,100720.53
2022-08-24T01:54:43.570Z,100715.28
2022-08-24T01:57:11.380Z,100724.97
2022-08-24T01:59:43.458Z,100730.78
2022-08-24T02:02:19.795Z,100734.19
2022-08-24T02:04:46.441Z,100735.78
2022-08-24T02:07:14.028Z,100738.06
2022-08-24T02:09:41.437Z,100738.75
2022-08-24T02:12:08.827Z,100741.03
2022-08-24T02:14:36.085Z,100743.63
2022-08-24T02:17:04.371Z,100747.16
2022-08-24T02:19:31.179Z,100746.50
2022-08-24T02:21:58.495Z,100744.09
2022-08-24T02:24:25.063Z,100751.69
2022-08-24T02:26:51.723Z,100762.41
2022-08-24T02:29:18.332Z,100758.28
2022-08-24T02:31:45.057Z,100756.66
2022-08-24T02:34:11.683Z,100759.88
2022-08-24T02:36:40.628Z,100749.59
2022-08-24T02:39:08.122Z,100750.94
2022-08-24T02:41:35.231Z,100750.81
2022-08-24T02:44:02.851Z,100756.16
2022-08-24T02:46:30.494Z,100763.88
2022-08-24T02:49:11.499Z,100752.94
2022-08-24T02:51:45.333Z,100758.41
2022-08-24T02:54:19.555Z,100761.16
2022-08-24T02:56:48.209Z,100745.06
2022-08-24T02:59:16.300Z,100756.66
2022-08-24T03:01:44.229Z,100758.47
2022-08-24T03:04:12.052Z,100758.34
2022-08-24T03:06:38.702Z,100763.34
2022-08-24T03:09:05.638Z,100757.41
2022-08-24T03:11:32.324Z,100754.22
2022-08-24T03:13:59.513Z,100763.53
2022-08-24T03:16:27.450Z,100764.69
2022-08-24T03:18:54.620Z,100754.41
2022-08-24T03:21:22.074Z,100759.63
2022-08-24T03:24:06.627Z,100750.94
2022-08-24T03:26:33.436Z,100757.19
2022-08-24T03:29:00.388Z,100758.34
2022-08-24T03:31:28.083Z,100756.28
2022-08-24T03:33:54.617Z,100757.75
2022-08-24T03:36:21.643Z,100756.94
2022-08-24T03:38:48.363Z,100755.69
2022-08-24T03:41:15.315Z,100748.13
2022-08-24T03:43:46.612Z,100756.53
2022-08-24T03:46:17.087Z,100758.34
2022-08-24T03:48:44.482Z,100758.97
2022-08-24T03:51:12.401Z,100760.13
2022-08-24T03:53:42.338Z,100758.50
2022-08-24T03:56:10.107Z,100756.94
2022-08-24T03:58:37.842Z,100756.44
2022-08-24T04:01:05.483Z,100758.84
2022-08-24T04:03:37.171Z,100764.28
2022-08-24T04:06:05.402Z,100764.13
2022-08-24T04:08:32.489Z,100768.59
2022-08-24T04:10:59.480Z,100759.75
2022-08-24T04:13:26.095Z,100765.06
2022-08-24T04:15:53.065Z,100774.25
2022-08-24T04:18:20.052Z,100770.22
2022-08-24T04:20:46.736Z,100776.03
2022-08-24T04:23:17.442Z,100766.22
2022-08-24T04:25:45.645Z,100768.03
2022-08-24T04:28:13.887Z,100772.53
2022-08-24T04:30:41.845Z,100776.38
2022-08-24T04:33:10.780Z,100775.28
2022-08-24T04:35:41.819Z,100782.97
2022-08-24T04:38:08.675Z,100783.63
2022-08-24T04:40:39.311Z,100788.31
2022-08-24T04:43:06.227Z,100787.00
2022-08-24T04:45:37.839Z,100789.75
2022-08-24T04:48:04.593Z,100788.44
2022-08-24T04:50:33.973Z,100794.88
2022-08-24T04:53:00.571Z,100797.75
2022-08-24T04:55:27.242Z,100801.47
2022-08-24T04:57:54.278Z,100804.19
2022-08-24T05:00:21.072Z,100803.88
2022-08-24T05:02:47.731Z,100808.19
2022-08-24T05:05:14.545Z,100812.66
2022-08-24T05:07:41.006Z,100814.75
2022-08-24T05:10:08.913Z,100809.75
2022-08-24T05:12:35.863Z,100814.56
2022-08-24T05:15:07.163Z,100806.84
2022-08-24T05:17:41.058Z,100810.81
2022-08-24T05:20:10.285Z,100818.53
2022-08-24T05:22:38.112Z,100825.38
2022-08-24T05:25:05.667Z,100818.13
2022-08-24T05:27:33.894Z,100815.84
2022-08-24T05:30:00.669Z,100820.53
2022-08-24T05:32:27.298Z,100823.56
2022-08-24T05:34:54.472Z,100821.84
2022-08-24T05:37:21.790Z,100816.22
2022-08-24T05:40:10.358Z,100822.16
2022-08-24T05:42:39.386Z,100819.25
2022-08-24T05:45:07.383Z,100827.72
2022-08-24T05:47:34.776Z,100829.81
2022-08-24T05:50:08.176Z,100833.00
2022-08-24T05:52:35.655Z,100826.41
2022-08-24T05:55:02.680Z,100827.53
2022-08-24T05:57:34.713Z,100828.66
2022-08-24T06:00:12.380Z,100834.94
2022-08-24T06:02:52.906Z,100838.81
2022-08-24T06:05:20.923Z,100829.34
2022-08-24T06:07:47.680Z,100838.66
2022-08-24T06:10:35.427Z,100842.31
2022-08-24T06:13:01.120Z,100841.22
2022-08-24T06:15:28.054Z,100839.06
2022-08-24T06:17:54.821Z,100840.81
2022-08-24T06:20:22.235Z,100834.50
2022-08-24T06:22:50.299Z,100835.09
2022-08-24T06:25:36.584Z,100839.06
2022-08-24T06:28:03.515Z,100832.19
2022-08-24T06:30:30.648Z,100840.53
2022-08-24T06:33:18.011Z,100832.94
2022-08-24T06:35:47.776Z,100835.22
2022-08-24T06:38:14.655Z,100836.78
2022-08-24T06:40:42.966Z,100846.84
2022-08-24T06:43:11.311Z,100844.41
2022-08-24T06:45:51.245Z,100854.78
2022-08-24T06:48:21.367Z,100845.41
2022-08-24T06:50:49.673Z,100849.78
2022-08-24T06:53:17.120Z,100849.31
2022-08-24T06:55:50.207Z,100855.16
2022-08-24T06:58:17.685Z,100850.22
2022-08-24T07:00:45.002Z,100871.09
2022-08-24T07:03:13.043Z,100863.47
2022-08-24T07:05:51.194Z,100866.03
2022-08-24T07:08:30.673Z,100865.66
2022-08-24T07:10:57.286Z,100863.28
2022-08-24T07:13:23.873Z,100863.97
2022-08-24T07:15:50.867Z,100862.38
2022-08-24T07:18:18.236Z,100864.53
2022-08-24T07:20:48.179Z,100867.41
2022-08-24T07:23:20.724Z,100872.44
2022-08-24T07:25:49.610Z,100866.47
2022-08-24T07:28:27.779Z,100863.28
2022-08-24T07:31:00.090Z,100864.53
2022-08-24T07:33:28.537Z,100863.50
2022-08-24T07:35:56.340Z,100867.16
2022-08-24T07:38:24.096Z,100863.03
2022-08-24T07:41:33.677Z,100863.94
2022-08-24T07:43:42.939Z,100864.50
2022-08-24T07:46:10.529Z,100868.38
2022-08-24T07:48:37.223Z,100859.34
2022-08-24T07:51:08.264Z,100869.47
2022-08-24T07:53:52.499Z,100870.59
2022-08-24T07:56:21.847Z,100880.38
2022-08-24T07:58:49.423Z,100873.94
2022-08-24T08:01:22.536Z,100881.28
2022-08-24T08:03:50.391Z,100881.72
2022-08-24T08:06:19.083Z,100881.41
2022-08-24T08:08:47.977Z,100874.38
2022-08-24T08:11:14.693Z,100876.78
2022-08-24T08:16:09.021Z,100868.25
2022-08-24T08:18:35.866Z,100882.06
2022-08-24T08:21:27.446Z,100876.09
2022-08-24T08:24:14.280Z,100881.88
2022-08-24T08:26:43.691Z,100879.88
2022-08-24T08:29:15.873Z,100882.84
2022-08-24T08:31:42.585Z,100886.38
2022-08-24T08:34:10.058Z,100886.00
2022-08-24T08:36:39.553Z,100881.69
2022-08-24T08:39:07.956Z,100882.44
2022-08-24T08:41:36.027Z,100872.91
2022-08-24T08:44:15.967Z,100869.72
2022-08-24T08:47:02.628Z,100869.28
2022-08-24T08:49:54.394Z,100861.28
2022-08-24T08:52:24.688Z,100862.50
2022-08-24T08:54:59.893Z,100860.41
2022-08-24T08:57:34.945Z,100864.13
2022-08-24T09:00:15.600Z,100857.97
2022-08-24T09:03:03.816Z,100856.69
2022-08-24T09:05:41.822Z,100856.16
2022-08-24T09:08:27.475Z,100859.13
2022-08-24T09:11:03.554Z,100852.75
2022-08-24T09:13:30.173Z,100855.16
2022-08-24T09:16:19.410Z,100852.91
2022-08-24T09:19:02.834Z,100845.09
2022-08-24T09:21:48.436Z,100849.25
2022-08-24T09:24:29.388Z,100843.69
2022-08-24T09:27:08.961Z,100854.97
2022-08-24T09:29:45.763Z,100845.94
2022-08-24T09:32:16.356Z,100843.84
2022-08-24T09:34:53.817Z,100846.69
2022-08-24T09:37:32.011Z,100844.97
2022-08-24T09:39:58.538Z,100846.09
2022-08-24T09:42:27.955Z,100843.81
2022-08-24T09:45:04.972Z,100844.72
2022-08-24T09:47:40.721Z,100834.19
2022-08-24T09:50:16.385Z,100835.44
2022-08-24T09:53:09.637Z,100841.72
2022-08-24T09:55:55.230Z,100828.63
2022-08-24T09:58:32.173Z,100824.34
2022-08-24T10:01:08.848Z,100825.41
2022-08-24T10:03:50.058Z,100816.59
2022-08-24T10:06:24.294Z,100814.47
2022-08-24T10:08:56.924Z,100815.00
2022-08-24T10:11:42.685Z,100815.41
2022-08-24T10:14:09.247Z,100804.19
2022-08-24T10:16:54.634Z,100799.47
2022-08-24T10:19:44.367Z,100802.28
2022-08-24T10:22:20.259Z,100803.31
2022-08-24T10:24:53.872Z,100799.28
2022-08-24T10:27:29.068Z,100793.75
2022-08-24T10:30:08.033Z,100799.47
2022-08-24T10:32:53.089Z,100788.50
2022-08-24T10:35:22.356Z,100791.50
2022-08-24T10:37:52.051Z,100779.50
2022-08-24T10:40:19.334Z,100776.03
2022-08-24T10:43:25.974Z,100771.84
2022-08-24T10:45:59.066Z,100770.63
2022-08-24T10:48:33.323Z,100767.03
2022-08-24T10:51:10.603Z,100771.38
2022-08-24T10:53:37.329Z,100763.53
2022-08-24T10:56:04.522Z,100760.66
2022-08-24T10:58:31.162Z,100762.59
2022-08-24T11:01:12.522Z,100749.41
2022-08-24T11:04:02.824Z,100760.59
2022-08-24T11:06:31.751Z,100752.47
2022-08-24T11:09:02.671Z,100758.47
2022-08-24T11:11:31.334Z,100746.72
2022-08-24T11:14:00.631Z,100747.19
2022-08-24T11:16:47.515Z,100748.13
2022-08-24T11:19:29.232Z,100743.75
2022-08-24T11:21:57.121Z,100737.16
2022-08-24T11:24:26.705Z,100735.91
2022-08-24T11:27:02.871Z,100726.16
2022-08-24T11:29:31.521Z,100730.97
2022-08-24T11:31:58.943Z,100726.56
2022-08-24T11:34:33.881Z,100726.53
2022-08-24T11:37:00.455Z,100719.63
2022-08-24T11:39:35.462Z,100721.91
2022-08-24T11:42:02.058Z,100722.72
2022-08-24T11:44:37.031Z,100720.41
2022-08-24T11:47:10.091Z,100710.44
2022-08-24T11:49:36.605Z,100712.69
2022-08-24T11:52:08.501Z,100715.75
2022-08-24T11:54:53.777Z,100706.53
2022-08-24T11:57:47.602Z,100705.50
2022-08-24T12:00:19.789Z,100700.41
2022-08-24T12:03:05.724Z,100704.19
2022-08-24T12:05:40.405Z,100707.19
2022-08-24T12:08:16.168Z,100707.75
2022-08-24T12:11:01.356Z,100685.75
2022-08-24T12:13:36.150Z,100684.69
2022-08-24T12:16:16.627Z,100688.38
2022-08-24T12:18:43.966Z,100695.28
2022-08-24T12:21:13.185Z,100688.03
2022-08-24T12:23:44.938Z,100683.00
2022-08-24T12:26:14.562Z,100687.09
2022-08-24T12:28:44.459Z,100690.25
2022-08-24T12:31:16.012Z,100690.53
2022-08-24T12:33:46.126Z,100685.16
2022-08-24T12:36:27.058Z,100675.19
2022-08-24T12:39:02.985Z,100673.53
2022-08-24T12:41:33.420Z,100686.56
2022-08-24T12:44:06.202Z,100680.00
2022-08-24T12:46:32.968Z,100678.91
2022-08-24T12:49:05.719Z,100685.72
2022-08-24T12:51:35.367Z,100676.97
2022-08-24T12:54:20.865Z,100684.03
2022-08-24T12:56:48.231Z,100682.22
2022-08-24T12:59:22.488Z,100687.19
2022-08-24T13:02:01.662Z,100678.72
2022-08-24T13:04:28.353Z,100681.56
2022-08-24T13:07:30.194Z,100680.59
2022-08-24T13:09:56.707Z,100683.59
2022-08-24T13:12:43.581Z,100682.94
2022-08-24T13:15:19.749Z,100680.00
2022-08-24T13:17:46.988Z,100683.94
2022-08-24T13:20:22.680Z,100680.88
2022-08-24T13:23:08.110Z,100678.47
2022-08-24T13:25:42.823Z,100678.66
2022-08-24T13:28:27.735Z,100681.00
2022-08-24T13:31:13.214Z,100673.88
2022-08-24T13:33:42.875Z,100674.81
2022-08-24T13:36:28.759Z,100677.88
2022-08-24T13:39:09.450Z,100675.34
2022-08-24T13:41:42.088Z,100661.03
2022-08-24T13:44:22.276Z,100664.66
2022-08-24T13:47:01.170Z,100656.84
2022-08-24T13:49:30.662Z,100655.63
2022-08-24T13:52:15.983Z,100659.03
2022-08-24T13:54:45.970Z,100650.94
2022-08-24T13:57:15.210Z,100654.72
2022-08-24T13:59:43.307Z,100649.03
2022-08-24T14:02:21.199Z,100651.91
2022-08-24T14:05:08.108Z,100654.28
2022-08-24T14:07:46.902Z,100658.84
2022-08-24T14:10:32.009Z,100646.38
2022-08-24T14:13:14.884Z,100652.28
2022-08-24T14:16:13.507Z,100651.19
2022-08-24T14:18:55.711Z,100642.19
2022-08-24T14:21:24.703Z,100646.16
2022-08-24T14:24:02.804Z,100634.63
2022-08-24T14:26:36.883Z,100634.97
2022-08-24T14:29:15.882Z,100635.09
2022-08-24T14:32:11.785Z,100633.13
2022-08-24T14:34:40.729Z,100633.91
2022-08-24T14:37:13.503Z,100633.13
2022-08-24T14:39:43.000Z,100634.00
2022-08-24T14:42:15.945Z,100632.00
2022-08-24T14:44:49.864Z,100628.31
2022-08-24T14:47:43.175Z,100625.94
2022-08-24T14:50:15.583Z,100627.19
2022-08-24T14:52:51.756Z,100624.03
2022-08-24T14:55:22.198Z,100625.59
2022-08-24T14:57:51.767Z,100621.25
2022-08-24T15:00:20.768Z,100625.56
2022-08-24T15:02:53.427Z,100619.94
2022-08-24T15:05:31.963Z,100619.50
2022-08-24T15:08:01.256Z,100608.81
2022-08-24T15:10:39.511Z,100612.19
2022-08-24T15:13:20.741Z,100609.84
2022-08-24T15:15:57.775Z,100613.47
2022-08-24T15:18:42.638Z,100610.34
2022-08-24T15:21:27.602Z,100600.97
2022-08-24T15:23:59.885Z,100609.09
2022-08-24T15:26:41.645Z,100617.88
2022-08-24T15:29:13.089Z,100610.59
2022-08-24T15:31:39.789Z,100595.38
2022-08-24T15:34:06.540Z,100597.28
2022-08-24T15:36:34.503Z,100592.22
2022-08-24T15:39:03.189Z,100590.94
2022-08-24T15:41:39.065Z,100602.75
2022-08-24T15:44:09.442Z,100597.63
2022-08-24T15:46:42.967Z,100607.50
2022-08-24T15:49:15.558Z,100597.13
2022-08-24T15:51:42.121Z,100605.41
2022-08-24T15:54:24.906Z,100603.91
2022-08-24T15:56:56.593Z,100605.53
2022-08-24T15:59:29.571Z,100610.34
2022-08-24T16:02:30.959Z,100604.09
2022-08-24T16:05:16.603Z,100612.72
2022-08-24T16:08:01.659Z,100611.03
2022-08-24T16:10:33.724Z,100604.69
2022-08-24T16:13:09.564Z,100611.88
2022-08-24T16:15:44.319Z,100602.41
2022-08-24T16:18:11.038Z,100596.94
2022-08-24T16:20:37.671Z,100608.56
2022-08-24T16:23:24.602Z,100608.31
2022-08-24T16:26:11.163Z,100606.00
2022-08-24T16:28:38.076Z,100604.06
2022-08-24T16:31:07.075Z,100613.19
2022-08-24T16:33:43.169Z,100609.22
2022-08-24T16:36:15.651Z,100613.22
2022-08-24T16:38:47.014Z,100605.31
2022-08-24T16:41:16.271Z,100609.69
2022-08-24T16:43:43.284Z,100605.72
2022-08-24T16:46:11.448Z,100610.50
2022-08-24T16:48:38.232Z,100611.28
2022-08-24T16:51:04.843Z,100614.88
2022-08-24T16:53:32.451Z,100608.53
2022-08-24T16:55:59.147Z,100607.72
2022-08-24T16:58:29.710Z,100612.50
2022-08-24T17:00:56.333Z,100610.50
2022-08-24T17:03:23.041Z,100611.28
2022-08-24T17:05:49.737Z,100613.66
2022-08-24T17:08:16.408Z,100613.28
2022-08-24T17:10:43.872Z,100607.75
2022-08-24T17:13:14.219Z,100604.19
2022-08-24T17:15:53.814Z,100612.50
2022-08-24T17:18:20.642Z,100613.31
2022-08-24T17:20:47.758Z,100612.47
2022-08-24T17:23:14.415Z,100627.88
2022-08-24T17:25:41.928Z,100623.53
2022-08-24T17:28:10.259Z,100628.66
2022-08-24T17:30:36.787Z,100633.81
2022-08-24T17:33:03.469Z,100629.03
2022-08-24T17:35:30.067Z,100634.16
2022-08-24T17:37:57.576Z,100632.16
2022-08-24T17:40:25.096Z,100628.19
2022-08-24T17:42:52.044Z,100642.78
2022-08-24T17:45:19.214Z,100638.03
2022-08-24T17:47:46.289Z,100640.00
2022-08-24T17:50:13.518Z,100645.94
2022-08-24T17:52:40.525Z,100643.16
2022-08-24T17:55:07.925Z,100647.09
2022-08-24T17:57:34.426Z,100647.09
2022-08-24T18:00:01.011Z,100649.41
2022-08-24T18:02:27.741Z,100650.16
2022-08-24T18:04:56.725Z,100654.94
2022-08-24T18:07:36.186Z,100653.34
2022-08-24T18:10:11.206Z,100665.59
2022-08-24T18:12:38.236Z,100658.88
2022-08-24T18:15:05.538Z,100658.41
2022-08-24T18:17:44.878Z,100663.53
2022-08-24T18:20:13.777Z,100660.75
2022-08-24T18:22:44.885Z,100661.06
2022-08-24T18:25:13.007Z,100664.56
2022-08-24T18:27:40.114Z,100667.31
2022-08-24T18:30:08.145Z,100665.66
2022-08-24T18:32:39.242Z,100671.94
2022-08-24T18:35:06.989Z,100667.22
2022-08-24T18:37:33.623Z,100667.97
2022-08-24T18:40:00.410Z,100676.63
2022-08-24T18:42:28.328Z,100681.31
2022-08-24T18:44:55.055Z,100680.50
2022-08-24T18:47:21.631Z,100685.19
2022-08-24T18:49:48.520Z,100685.13
2022-08-24T18:52:17.086Z,100686.25
2022-08-24T18:54:45.020Z,100690.56
2022-08-24T18:57:11.690Z,100685.81
2022-08-24T18:59:40.571Z,100691.69
2022-08-24T19:02:30.944Z,100692.06
2022-08-24T19:04:59.055Z,100693.59
2022-08-24T19:07:26.681Z,100686.44
2022-08-24T19:09:53.232Z,100702.97
2022-08-24T19:12:20.443Z,100697.03
2022-08-24T19:14:49.984Z,100701.34
2022-08-24T19:17:16.624Z,100704.06
2022-08-24T19:19:43.201Z,100697.34
2022-08-24T19:22:10.652Z,100695.31
2022-08-24T19:24:38.236Z,100701.19
2022-08-24T19:27:06.661Z,100690.03
2022-08-24T19:29:54.741Z,100696.25
2022-08-24T19:32:22.496Z,100692.59
2022-08-24T19:34:50.003Z,100688.22
2022-08-24T19:37:16.711Z,100687.38
2022-08-24T19:39:43.569Z,100688.88
2022-08-24T19:42:12.946Z,100684.84
2022-08-24T19:44:58.641Z,100686.41
2022-08-24T19:47:25.824Z,100687.06
2022-08-24T19:49:52.668Z,100689.34
2022-08-24T19:52:20.333Z,100702.25
2022-08-24T19:54:47.456Z,100688.03
2022-08-24T19:57:32.719Z,100691.91
2022-08-24T20:00:00.963Z,100694.63
2022-08-24T20:02:27.572Z,100691.41
2022-08-24T20:04:54.355Z,100698.44
2022-08-24T20:07:21.012Z,100698.44
2022-08-24T20:09:47.558Z,100704.34
2022-08-24T20:12:14.076Z,100699.13
2022-08-24T20:14:40.621Z,100694.31
2022-08-24T20:17:07.156Z,100693.53
2022-08-24T20:19:36.354Z,100686.78
2022-08-24T20:22:02.922Z,100695.03
2022-08-24T20:24:39.971Z,100696.63
2022-08-24T20:27:06.546Z,100695.03
2022-08-24T20:29:33.350Z,100695.78
2022-08-24T20:32:02.466Z,100696.16
2022-08-24T20:34:29.670Z,100692.59
2022-08-24T20:36:57.349Z,100702.03
2022-08-24T20:39:25.754Z,100701.19
2022-08-24T20:41:53.146Z,100695.63
2022-08-24T20:44:19.779Z,100700.34
2022-08-24T20:46:49.638Z,100700.63
2022-08-24T20:49:16.883Z,100700.22
2022-08-24T20:51:43.976Z,100704.47
2022-08-24T20:54:11.345Z,100709.91
2022-08-24T20:56:38.416Z,100699.59
2022-08-24T20:59:06.483Z,100697.16
2022-08-24T21:01:33.118Z,100700.25
2022-08-24T21:04:04.834Z,100705.34
2022-08-24T21:06:32.055Z,100701.38
2022-08-24T21:08:58.568Z,100706.00
2022-08-24T21:11:25.155Z,100705.94
2022-08-24T21:13:51.879Z,100705.16
2022-08-24T21:16:18.764Z,100697.25
2022-08-24T21:18:46.935Z,100697.19
2022-08-24T21:21:13.650Z,100703.44
2022-08-24T21:23:40.385Z,100699.91
2022-08-24T21:26:08.613Z,100705.75
2022-08-24T21:28:36.282Z,100706.50
2022-08-24T21:31:06.179Z,100705.69
2022-08-24T21:33:52.241Z,100700.06
2022-08-24T21:36:20.551Z,100707.03
2022-08-24T21:38:47.397Z,100711.63
2022-08-24T21:41:13.924Z,100703.69
2022-08-24T21:43:40.470Z,100714.59
2022-08-24T21:46:08.096Z,100714.53
2022-08-24T21:48:34.644Z,100714.44
2022-08-24T21:51:01.243Z,100713.97
2022-08-24T21:53:28.667Z,100726.84
2022-08-24T21:55:56.010Z,100715.78
2022-08-24T21:58:24.036Z,100720.41
2022-08-24T22:00:51.835Z,100714.81
2022-08-24T22:03:18.522Z,100728.13
2022-08-24T22:05:45.243Z,100719.44
2022-08-24T22:08:11.833Z,100720.63
2022-08-24T22:10:38.428Z,100723.38
2022-08-24T22:13:05.050Z,100723.72
2022-08-24T22:15:33.700Z,100727.19
2022-08-24T22:18:00.729Z,100727.13
2022-08-24T22:20:27.355Z,100720.75
2022-08-24T22:22:53.991Z,100720.75
2022-08-24T22:25:20.626Z,100725.81
2022-08-24T22:27:47.473Z,100725.38
2022-08-24T22:30:15.856Z,100720.56
2022-08-24T22:32:42.499Z,100724.03
2022-08-24T22:35:09.347Z,100726.78
2022-08-24T22:37:36.042Z,100727.94
2022-08-24T22:40:03.876Z,100723.59
2022-08-24T22:42:30.538Z,100724.31
2022-08-24T22:44:58.650Z,100723.44
2022-08-24T22:47:25.945Z,100717.06
2022-08-24T22:49:54.603Z,100716.28
2022-08-24T22:52:21.189Z,100721.25
2022-08-24T22:54:47.755Z,100718.41
2022-08-24T22:57:14.312Z,100721.09
2022-08-24T22:59:46.337Z,100718.25
2022-08-24T23:02:14.625Z,100720.47
2022-08-24T23:04:45.855Z,100717.28
2022-08-24T23:07:13.847Z,100718.00
2022-08-24T23:09:44.652Z,100714.00
2022-08-24T23:12:12.831Z,100713.22
2022-08-24T23:14:39.572Z,100714.72
2022-08-24T23:17:06.159Z,100713.94
2022-08-24T23:19:51.581Z,100712.34
2022-08-24T23:22:19.251Z,100719.78
2022-08-24T23:24:46.172Z,100713.06
2022-08-24T23:27:13.730Z,100720.50
2022-08-24T23:29:40.423Z,100720.50
2022-08-24T23:32:07.259Z,100724.75
2022-08-24T23:34:34.489Z,100716.06
2022-08-24T23:37:01.364Z,100715.25
2022-08-24T23:39:28.210Z,100721.94
2022-08-24T23:41:55.142Z,100718.34
2022-08-24T23:44:26.036Z,100717.44
2022-08-24T23:46:52.772Z,100716.56
2022-08-24T23:49:20.194Z,100711.78
2022-08-24T23:51:47.354Z,100709.78
2022-08-24T23:54:14.864Z,100706.56
2022-08-24T23:56:42.546Z,100706.13
2022-08-24T23:59:17.018Z,100707.28
